sensor_id;sensor_type;location;lat;lon;timestamp;temperature;humidity
19974;DHT22;10148;47.694;9.442;2022-12-07T00:01:18;2.70;99.90
19974;DHT22;10148;47.694;9.442;2022-12-07T00:03:45;2.70;99.90
19974;DHT22;10148;47.694;9.442;2022-12-07T00:06:13;2.70;99.90
19974;DHT22;10148;47.694;9.442;2022-12-07T00:08:39;2.70;99.90
19974;DHT22;10148;47.694;9.442;2022-12-07T00:11:10;2.70;99.90
19974;DHT22;10148;47.694;9.442;2022-12-07T00:13:37;2.70;99.90
19974;DHT22;10148;47.694;9.442;2022-12-07T00:16:08;2.70;99.90
19974;DHT22;10148;47.694;9.442;2022-12-07T00:18:34;2.80;99.90
19974;DHT22;10148;47.694;9.442;2022-12-07T00:21:05;2.80;99.90
19974;DHT22;10148;47.694;9.442;2022-12-07T00:23:32;2.70;99.90
19974;DHT22;10148;47.694;9.442;2022-12-07T00:26:16;2.70;99.90
19974;DHT22;10148;47.694;9.442;2022-12-07T00:28:49;2.80;99.90
19974;DHT22;10148;47.694;9.442;2022-12-07T00:31:17;2.80;99.90
19974;DHT22;10148;47.694;9.442;2022-12-07T00:33:43;2.80;99.90
19974;DHT22;10148;47.694;9.442;2022-12-07T00:36:11;2.70;99.90
19974;DHT22;10148;47.694;9.442;2022-12-07T00:38:39;2.70;99.90
19974;DHT22;10148;47.694;9.442;2022-12-07T00:41:12;2.70;99.90
19974;DHT22;10148;47.694;9.442;2022-12-07T00:43:40;2.80;99.90
19974;DHT22;10148;47.694;9.442;2022-12-07T00:46:05;2.70;99.90
19974;DHT22;10148;47.694;9.442;2022-12-07T00:48:31;2.70;99.90
19974;DHT22;10148;47.694;9.442;2022-12-07T00:50:57;2.70;99.90
19974;DHT22;10148;47.694;9.442;2022-12-07T00:53:23;2.70;99.90
19974;DHT22;10148;47.694;9.442;2022-12-07T00:55:49;2.70;99.90
19974;DHT22;10148;47.694;9.442;2022-12-07T00:58:14;2.70;99.90
19974;DHT22;10148;47.694;9.442;2022-12-07T01:00:41;2.70;99.90
19974;DHT22;10148;47.694;9.442;2022-12-07T01:03:08;2.70;99.90
19974;DHT22;10148;47.694;9.442;2022-12-07T01:05:34;2.70;99.90
19974;DHT22;10148;47.694;9.442;2022-12-07T01:08:00;2.70;99.90
19974;DHT22;10148;47.694;9.442;2022-12-07T01:10:26;2.70;99.90
19974;DHT22;10148;47.694;9.442;2022-12-07T01:12:52;2.60;99.90
19974;DHT22;10148;47.694;9.442;2022-12-07T01:15:18;2.70;99.90
19974;DHT22;10148;47.694;9.442;2022-12-07T01:17:43;2.60;99.90
19974;DHT22;10148;47.694;9.442;2022-12-07T01:20:10;2.60;99.90
19974;DHT22;10148;47.694;9.442;2022-12-07T01:22:42;2.60;99.90
19974;DHT22;10148;47.694;9.442;2022-12-07T01:25:09;2.60;99.90
19974;DHT22;10148;47.694;9.442;2022-12-07T01:27:35;2.70;99.90
19974;DHT22;10148;47.694;9.442;2022-12-07T01:30:02;2.60;99.90
19974;DHT22;10148;47.694;9.442;2022-12-07T01:32:29;2.60;99.90
19974;DHT22;10148;47.694;9.442;2022-12-07T01:34:54;2.60;99.90
19974;DHT22;10148;47.694;9.442;2022-12-07T01:37:20;2.60;99.90
19974;DHT22;10148;47.694;9.442;2022-12-07T01:39:48;2.60;99.90
19974;DHT22;10148;47.694;9.442;2022-12-07T01:42:14;2.60;99.90
19974;DHT22;10148;47.694;9.442;2022-12-07T01:47:45;2.50;99.90
19974;DHT22;10148;47.694;9.442;2022-12-07T01:50:12;2.50;99.90
19974;DHT22;10148;47.694;9.442;2022-12-07T01:52:38;2.50;99.90
19974;DHT22;10148;47.694;9.442;2022-12-07T01:55:07;2.50;99.90
19974;DHT22;10148;47.694;9.442;2022-12-07T01:57:36;2.50;99.90
19974;DHT22;10148;47.694;9.442;2022-12-07T02:00:05;2.50;99.90
19974;DHT22;10148;47.694;9.442;2022-12-07T02:02:34;2.50;99.90
19974;DHT22;10148;47.694;9.442;2022-12-07T02:05:02;2.50;99.90
19974;DHT22;10148;47.694;9.442;2022-12-07T02:07:29;2.50;99.90
19974;DHT22;10148;47.694;9.442;2022-12-07T02:09:55;2.50;99.90
19974;DHT22;10148;47.694;9.442;2022-12-07T02:12:22;2.50;99.90
19974;DHT22;10148;47.694;9.442;2022-12-07T02:14:50;2.50;99.90
19974;DHT22;10148;47.694;9.442;2022-12-07T02:17:22;2.40;99.90
19974;DHT22;10148;47.694;9.442;2022-12-07T02:20:27;2.40;99.90
19974;DHT22;10148;47.694;9.442;2022-12-07T02:30:46;2.50;99.90
19974;DHT22;10148;47.694;9.442;2022-12-07T02:33:17;2.50;99.90
19974;DHT22;10148;47.694;9.442;2022-12-07T02:35:45;2.50;99.90
19974;DHT22;10148;47.694;9.442;2022-12-07T02:38:35;2.50;99.90
19974;DHT22;10148;47.694;9.442;2022-12-07T02:41:08;2.50;99.90
19974;DHT22;10148;47.694;9.442;2022-12-07T02:43:39;2.50;99.90
19974;DHT22;10148;47.694;9.442;2022-12-07T02:46:09;2.50;99.90
19974;DHT22;10148;47.694;9.442;2022-12-07T02:48:38;2.50;99.90
19974;DHT22;10148;47.694;9.442;2022-12-07T02:51:04;2.50;99.90
19974;DHT22;10148;47.694;9.442;2022-12-07T02:53:38;2.50;99.90
19974;DHT22;10148;47.694;9.442;2022-12-07T03:04:38;2.40;99.90
19974;DHT22;10148;47.694;9.442;2022-12-07T03:10:03;2.50;99.90
19974;DHT22;10148;47.694;9.442;2022-12-07T03:12:41;2.40;99.90
19974;DHT22;10148;47.694;9.442;2022-12-07T03:15:32;2.40;99.90
19974;DHT22;10148;47.694;9.442;2022-12-07T03:18:01;2.40;99.90
19974;DHT22;10148;47.694;9.442;2022-12-07T03:20:29;2.40;99.90
19974;DHT22;10148;47.694;9.442;2022-12-07T03:22:55;2.40;99.90
19974;DHT22;10148;47.694;9.442;2022-12-07T03:25:21;2.40;99.90
19974;DHT22;10148;47.694;9.442;2022-12-07T03:27:58;2.40;99.90
19974;DHT22;10148;47.694;9.442;2022-12-07T03:30:52;2.40;99.90
19974;DHT22;10148;47.694;9.442;2022-12-07T03:33:27;2.40;99.90
19974;DHT22;10148;47.694;9.442;2022-12-07T03:36:16;2.40;99.90
19974;DHT22;10148;47.694;9.442;2022-12-07T03:38:49;2.40;99.90
19974;DHT22;10148;47.694;9.442;2022-12-07T03:41:24;2.40;99.90
19974;DHT22;10148;47.694;9.442;2022-12-07T03:43:50;2.40;99.90
19974;DHT22;10148;47.694;9.442;2022-12-07T03:46:21;2.40;99.90
19974;DHT22;10148;47.694;9.442;2022-12-07T03:54:39;2.40;99.90
19974;DHT22;10148;47.694;9.442;2022-12-07T03:57:07;2.40;99.90
19974;DHT22;10148;47.694;9.442;2022-12-07T03:59:33;2.40;99.90
19974;DHT22;10148;47.694;9.442;2022-12-07T04:02:04;2.40;99.90
19974;DHT22;10148;47.694;9.442;2022-12-07T04:04:30;2.40;99.90
19974;DHT22;10148;47.694;9.442;2022-12-07T04:06:56;2.40;99.90
19974;DHT22;10148;47.694;9.442;2022-12-07T04:09:22;2.50;99.90
19974;DHT22;10148;47.694;9.442;2022-12-07T04:11:48;2.40;99.90
19974;DHT22;10148;47.694;9.442;2022-12-07T04:14:13;2.40;99.90
19974;DHT22;10148;47.694;9.442;2022-12-07T04:19:12;2.50;99.90
19974;DHT22;10148;47.694;9.442;2022-12-07T04:21:38;2.50;99.90
19974;DHT22;10148;47.694;9.442;2022-12-07T04:24:04;2.40;99.90
19974;DHT22;10148;47.694;9.442;2022-12-07T04:26:30;2.50;99.90
19974;DHT22;10148;47.694;9.442;2022-12-07T04:28:56;2.50;99.90
19974;DHT22;10148;47.694;9.442;2022-12-07T04:31:21;2.50;99.90
19974;DHT22;10148;47.694;9.442;2022-12-07T04:33:47;2.50;99.90
19974;DHT22;10148;47.694;9.442;2022-12-07T04:36:13;2.50;99.90
19974;DHT22;10148;47.694;9.442;2022-12-07T04:38:38;2.50;99.90
19974;DHT22;10148;47.694;9.442;2022-12-07T04:41:05;2.40;99.90
19974;DHT22;10148;47.694;9.442;2022-12-07T04:43:31;2.50;99.90
19974;DHT22;10148;47.694;9.442;2022-12-07T04:45:57;2.50;99.90
19974;DHT22;10148;47.694;9.442;2022-12-07T04:48:22;2.50;99.90
19974;DHT22;10148;47.694;9.442;2022-12-07T04:50:49;2.50;99.90
19974;DHT22;10148;47.694;9.442;2022-12-07T04:53:17;2.50;99.90
19974;DHT22;10148;47.694;9.442;2022-12-07T04:55:44;2.50;99.90
19974;DHT22;10148;47.694;9.442;2022-12-07T04:58:10;2.50;99.90
19974;DHT22;10148;47.694;9.442;2022-12-07T05:00:36;2.60;99.90
19974;DHT22;10148;47.694;9.442;2022-12-07T05:03:01;2.60;99.90
19974;DHT22;10148;47.694;9.442;2022-12-07T05:05:27;2.50;99.90
19974;DHT22;10148;47.694;9.442;2022-12-07T05:07:52;2.50;99.90
19974;DHT22;10148;47.694;9.442;2022-12-07T05:10:18;2.50;99.90
19974;DHT22;10148;47.694;9.442;2022-12-07T05:12:44;2.50;99.90
19974;DHT22;10148;47.694;9.442;2022-12-07T05:15:11;2.50;99.90
19974;DHT22;10148;47.694;9.442;2022-12-07T05:17:37;2.50;99.90
19974;DHT22;10148;47.694;9.442;2022-12-07T05:20:03;2.50;99.90
19974;DHT22;10148;47.694;9.442;2022-12-07T05:22:28;2.50;99.90
19974;DHT22;10148;47.694;9.442;2022-12-07T05:24:55;2.50;99.90
19974;DHT22;10148;47.694;9.442;2022-12-07T05:27:21;2.50;99.90
19974;DHT22;10148;47.694;9.442;2022-12-07T05:29:46;2.60;99.90
19974;DHT22;10148;47.694;9.442;2022-12-07T05:32:12;2.50;99.90
19974;DHT22;10148;47.694;9.442;2022-12-07T05:34:37;2.50;99.90
19974;DHT22;10148;47.694;9.442;2022-12-07T05:37:03;2.60;99.90
19974;DHT22;10148;47.694;9.442;2022-12-07T05:39:28;2.60;99.90
19974;DHT22;10148;47.694;9.442;2022-12-07T05:41:54;2.60;99.90
19974;DHT22;10148;47.694;9.442;2022-12-07T05:44:42;2.60;99.90
19974;DHT22;10148;47.694;9.442;2022-12-07T05:47:09;2.60;99.90
19974;DHT22;10148;47.694;9.442;2022-12-07T05:49:34;2.60;99.90
19974;DHT22;10148;47.694;9.442;2022-12-07T05:52:00;2.60;99.90
19974;DHT22;10148;47.694;9.442;2022-12-07T05:54:26;2.50;99.90
19974;DHT22;10148;47.694;9.442;2022-12-07T05:56:51;2.60;99.90
19974;DHT22;10148;47.694;9.442;2022-12-07T05:59:17;2.60;99.90
19974;DHT22;10148;47.694;9.442;2022-12-07T06:01:50;2.50;99.90
19974;DHT22;10148;47.694;9.442;2022-12-07T06:04:16;2.50;99.90
19974;DHT22;10148;47.694;9.442;2022-12-07T06:06:42;2.50;99.90
19974;DHT22;10148;47.694;9.442;2022-12-07T06:09:09;2.50;99.90
19974;DHT22;10148;47.694;9.442;2022-12-07T06:11:34;2.50;99.90
19974;DHT22;10148;47.694;9.442;2022-12-07T06:14:18;2.50;99.90
19974;DHT22;10148;47.694;9.442;2022-12-07T06:16:44;2.50;99.90
19974;DHT22;10148;47.694;9.442;2022-12-07T06:19:10;2.50;99.90
19974;DHT22;10148;47.694;9.442;2022-12-07T06:21:35;2.50;99.90
19974;DHT22;10148;47.694;9.442;2022-12-07T06:24:01;2.50;99.90
19974;DHT22;10148;47.694;9.442;2022-12-07T06:26:27;2.50;99.90
19974;DHT22;10148;47.694;9.442;2022-12-07T06:28:53;2.50;99.90
19974;DHT22;10148;47.694;9.442;2022-12-07T06:31:18;2.60;99.90
19974;DHT22;10148;47.694;9.442;2022-12-07T06:33:44;2.50;99.90
19974;DHT22;10148;47.694;9.442;2022-12-07T06:36:10;2.60;99.90
19974;DHT22;10148;47.694;9.442;2022-12-07T06:38:36;2.50;99.90
19974;DHT22;10148;47.694;9.442;2022-12-07T06:41:01;2.50;99.90
19974;DHT22;10148;47.694;9.442;2022-12-07T06:43:27;2.50;99.90
19974;DHT22;10148;47.694;9.442;2022-12-07T06:45:52;2.50;99.90
19974;DHT22;10148;47.694;9.442;2022-12-07T06:48:18;2.50;99.90
19974;DHT22;10148;47.694;9.442;2022-12-07T06:50:47;2.50;99.90
19974;DHT22;10148;47.694;9.442;2022-12-07T06:53:13;2.50;99.90
19974;DHT22;10148;47.694;9.442;2022-12-07T06:55:39;2.50;99.90
19974;DHT22;10148;47.694;9.442;2022-12-07T06:58:04;2.50;99.90
19974;DHT22;10148;47.694;9.442;2022-12-07T07:00:30;2.50;99.90
19974;DHT22;10148;47.694;9.442;2022-12-07T07:02:56;2.50;99.90
19974;DHT22;10148;47.694;9.442;2022-12-07T07:05:21;2.50;99.90
19974;DHT22;10148;47.694;9.442;2022-12-07T07:07:48;2.50;99.90
19974;DHT22;10148;47.694;9.442;2022-12-07T07:10:14;2.50;99.90
19974;DHT22;10148;47.694;9.442;2022-12-07T07:12:39;2.60;99.90
19974;DHT22;10148;47.694;9.442;2022-12-07T07:15:05;2.50;99.90
19974;DHT22;10148;47.694;9.442;2022-12-07T07:17:31;2.60;99.90
19974;DHT22;10148;47.694;9.442;2022-12-07T07:19:56;2.60;99.90
19974;DHT22;10148;47.694;9.442;2022-12-07T07:22:22;2.60;99.90
19974;DHT22;10148;47.694;9.442;2022-12-07T07:24:47;2.60;99.90
19974;DHT22;10148;47.694;9.442;2022-12-07T07:27:13;2.60;99.90
19974;DHT22;10148;47.694;9.442;2022-12-07T07:29:38;2.60;99.90
19974;DHT22;10148;47.694;9.442;2022-12-07T07:32:04;2.60;99.90
19974;DHT22;10148;47.694;9.442;2022-12-07T07:34:30;2.60;99.90
19974;DHT22;10148;47.694;9.442;2022-12-07T07:36:55;2.60;99.90
19974;DHT22;10148;47.694;9.442;2022-12-07T07:39:21;2.60;99.90
19974;DHT22;10148;47.694;9.442;2022-12-07T07:41:46;2.70;99.90
19974;DHT22;10148;47.694;9.442;2022-12-07T07:44:12;2.70;99.90
19974;DHT22;10148;47.694;9.442;2022-12-07T07:46:38;2.70;99.90
19974;DHT22;10148;47.694;9.442;2022-12-07T07:49:03;2.70;99.90
19974;DHT22;10148;47.694;9.442;2022-12-07T07:51:29;2.70;99.90
19974;DHT22;10148;47.694;9.442;2022-12-07T07:53:54;2.70;99.90
19974;DHT22;10148;47.694;9.442;2022-12-07T07:56:20;2.70;99.90
19974;DHT22;10148;47.694;9.442;2022-12-07T07:58:45;2.70;99.90
19974;DHT22;10148;47.694;9.442;2022-12-07T08:01:11;2.70;99.90
19974;DHT22;10148;47.694;9.442;2022-12-07T08:03:38;2.70;99.90
19974;DHT22;10148;47.694;9.442;2022-12-07T08:06:04;2.70;99.90
19974;DHT22;10148;47.694;9.442;2022-12-07T08:08:30;2.70;99.90
19974;DHT22;10148;47.694;9.442;2022-12-07T08:10:56;2.70;99.90
19974;DHT22;10148;47.694;9.442;2022-12-07T08:13:21;2.80;99.90
19974;DHT22;10148;47.694;9.442;2022-12-07T08:15:48;2.80;99.90
19974;DHT22;10148;47.694;9.442;2022-12-07T08:18:14;2.80;99.90
19974;DHT22;10148;47.694;9.442;2022-12-07T08:20:41;2.80;99.90
19974;DHT22;10148;47.694;9.442;2022-12-07T08:23:07;2.80;99.90
19974;DHT22;10148;47.694;9.442;2022-12-07T08:25:34;2.90;99.90
19974;DHT22;10148;47.694;9.442;2022-12-07T08:27:59;2.90;99.90
19974;DHT22;10148;47.694;9.442;2022-12-07T08:30:26;2.90;99.90
19974;DHT22;10148;47.694;9.442;2022-12-07T08:32:52;2.90;99.90
19974;DHT22;10148;47.694;9.442;2022-12-07T08:35:18;2.90;99.90
19974;DHT22;10148;47.694;9.442;2022-12-07T08:37:43;2.90;99.90
19974;DHT22;10148;47.694;9.442;2022-12-07T08:40:11;2.90;99.90
19974;DHT22;10148;47.694;9.442;2022-12-07T08:42:41;2.90;99.90
19974;DHT22;10148;47.694;9.442;2022-12-07T08:45:09;2.90;99.90
19974;DHT22;10148;47.694;9.442;2022-12-07T08:47:38;2.90;99.90
19974;DHT22;10148;47.694;9.442;2022-12-07T08:50:06;3.00;99.90
19974;DHT22;10148;47.694;9.442;2022-12-07T08:52:32;3.00;99.90
19974;DHT22;10148;47.694;9.442;2022-12-07T08:54:59;3.00;99.90
19974;DHT22;10148;47.694;9.442;2022-12-07T08:57:27;3.00;99.90
19974;DHT22;10148;47.694;9.442;2022-12-07T08:59:53;3.00;99.90
19974;DHT22;10148;47.694;9.442;2022-12-07T09:02:19;3.00;99.90
19974;DHT22;10148;47.694;9.442;2022-12-07T09:04:44;3.00;99.90
19974;DHT22;10148;47.694;9.442;2022-12-07T09:07:10;3.00;99.90
19974;DHT22;10148;47.694;9.442;2022-12-07T09:09:36;3.10;99.90
19974;DHT22;10148;47.694;9.442;2022-12-07T09:12:01;3.10;99.90
19974;DHT22;10148;47.694;9.442;2022-12-07T09:14:27;3.10;99.90
19974;DHT22;10148;47.694;9.442;2022-12-07T09:16:52;3.10;99.90
19974;DHT22;10148;47.694;9.442;2022-12-07T09:19:18;3.10;99.90
19974;DHT22;10148;47.694;9.442;2022-12-07T09:21:43;3.00;99.90
19974;DHT22;10148;47.694;9.442;2022-12-07T09:24:09;3.10;99.90
19974;DHT22;10148;47.694;9.442;2022-12-07T09:26:34;3.10;99.90
19974;DHT22;10148;47.694;9.442;2022-12-07T09:29:02;3.10;99.90
19974;DHT22;10148;47.694;9.442;2022-12-07T09:31:28;3.10;99.90
19974;DHT22;10148;47.694;9.442;2022-12-07T09:33:57;3.10;99.90
19974;DHT22;10148;47.694;9.442;2022-12-07T09:36:24;3.10;99.90
19974;DHT22;10148;47.694;9.442;2022-12-07T09:38:50;3.10;99.90
19974;DHT22;10148;47.694;9.442;2022-12-07T09:41:16;3.20;99.90
19974;DHT22;10148;47.694;9.442;2022-12-07T09:43:42;3.20;99.90
19974;DHT22;10148;47.694;9.442;2022-12-07T09:46:11;3.20;99.90
19974;DHT22;10148;47.694;9.442;2022-12-07T09:48:38;3.20;99.90
19974;DHT22;10148;47.694;9.442;2022-12-07T09:51:24;3.20;99.90
19974;DHT22;10148;47.694;9.442;2022-12-07T09:53:54;3.20;99.90
19974;DHT22;10148;47.694;9.442;2022-12-07T09:56:22;3.20;99.90
19974;DHT22;10148;47.694;9.442;2022-12-07T09:58:49;3.20;99.90
19974;DHT22;10148;47.694;9.442;2022-12-07T10:01:19;3.20;99.90
19974;DHT22;10148;47.694;9.442;2022-12-07T10:04:02;3.30;99.90
19974;DHT22;10148;47.694;9.442;2022-12-07T10:06:31;3.30;99.90
19974;DHT22;10148;47.694;9.442;2022-12-07T10:08:56;3.30;99.90
19974;DHT22;10148;47.694;9.442;2022-12-07T10:11:22;3.30;99.90
19974;DHT22;10148;47.694;9.442;2022-12-07T10:13:51;3.30;99.90
19974;DHT22;10148;47.694;9.442;2022-12-07T10:18:52;3.40;99.90
19974;DHT22;10148;47.694;9.442;2022-12-07T10:21:27;3.40;99.90
19974;DHT22;10148;47.694;9.442;2022-12-07T10:24:13;3.40;99.90
19974;DHT22;10148;47.694;9.442;2022-12-07T10:29:30;3.50;99.90
19974;DHT22;10148;47.694;9.442;2022-12-07T10:34:33;3.50;99.90
19974;DHT22;10148;47.694;9.442;2022-12-07T10:42:30;3.50;99.90
19974;DHT22;10148;47.694;9.442;2022-12-07T10:59:16;3.40;99.90
19974;DHT22;10148;47.694;9.442;2022-12-07T11:02:22;3.50;99.90
19974;DHT22;10148;47.694;9.442;2022-12-07T11:13:18;3.50;99.90
19974;DHT22;10148;47.694;9.442;2022-12-07T11:21:57;3.60;99.90
19974;DHT22;10148;47.694;9.442;2022-12-07T11:29:54;3.60;99.90
19974;DHT22;10148;47.694;9.442;2022-12-07T11:35:24;3.60;99.90
19974;DHT22;10148;47.694;9.442;2022-12-07T11:37:59;3.60;99.90
19974;DHT22;10148;47.694;9.442;2022-12-07T11:40:34;3.70;99.90
19974;DHT22;10148;47.694;9.442;2022-12-07T11:43:05;3.60;99.90
19974;DHT22;10148;47.694;9.442;2022-12-07T11:45:37;3.60;99.90
19974;DHT22;10148;47.694;9.442;2022-12-07T11:48:12;3.60;99.90
19974;DHT22;10148;47.694;9.442;2022-12-07T11:50:42;3.60;99.90
19974;DHT22;10148;47.694;9.442;2022-12-07T11:53:22;3.60;99.90
19974;DHT22;10148;47.694;9.442;2022-12-07T11:56:11;3.70;99.90
19974;DHT22;10148;47.694;9.442;2022-12-07T12:06:42;3.80;99.90
19974;DHT22;10148;47.694;9.442;2022-12-07T12:09:32;3.80;99.90
19974;DHT22;10148;47.694;9.442;2022-12-07T12:15:07;3.80;99.90
19974;DHT22;10148;47.694;9.442;2022-12-07T12:17:49;3.80;99.90
19974;DHT22;10148;47.694;9.442;2022-12-07T12:20:29;3.80;99.90
19974;DHT22;10148;47.694;9.442;2022-12-07T12:23:21;3.80;99.90
19974;DHT22;10148;47.694;9.442;2022-12-07T12:25:56;3.80;99.90
19974;DHT22;10148;47.694;9.442;2022-12-07T12:28:38;3.80;99.90
19974;DHT22;10148;47.694;9.442;2022-12-07T12:31:14;3.80;99.90
19974;DHT22;10148;47.694;9.442;2022-12-07T12:33:47;3.90;99.90
19974;DHT22;10148;47.694;9.442;2022-12-07T12:38:52;4.00;99.90
19974;DHT22;10148;47.694;9.442;2022-12-07T12:54:21;4.10;99.90
19974;DHT22;10148;47.694;9.442;2022-12-07T13:17:59;4.10;99.90
19974;DHT22;10148;47.694;9.442;2022-12-07T13:26:23;4.10;99.90
19974;DHT22;10148;47.694;9.442;2022-12-07T13:29:04;4.10;99.90
19974;DHT22;10148;47.694;9.442;2022-12-07T13:33:58;4.20;99.90
19974;DHT22;10148;47.694;9.442;2022-12-07T13:36:31;4.20;99.90
19974;DHT22;10148;47.694;9.442;2022-12-07T13:41:41;4.20;99.90
19974;DHT22;10148;47.694;9.442;2022-12-07T13:44:17;4.30;99.90
19974;DHT22;10148;47.694;9.442;2022-12-07T13:47:05;4.30;99.90
19974;DHT22;10148;47.694;9.442;2022-12-07T13:49:36;4.20;99.90
19974;DHT22;10148;47.694;9.442;2022-12-07T13:55:14;4.20;99.90
19974;DHT22;10148;47.694;9.442;2022-12-07T13:57:40;4.20;99.90
19974;DHT22;10148;47.694;9.442;2022-12-07T14:03:24;4.20;99.90
19974;DHT22;10148;47.694;9.442;2022-12-07T14:08:39;4.10;99.90
19974;DHT22;10148;47.694;9.442;2022-12-07T14:11:04;4.10;99.90
19974;DHT22;10148;47.694;9.442;2022-12-07T14:16:27;4.20;99.90
19974;DHT22;10148;47.694;9.442;2022-12-07T14:18:54;4.20;99.90
19974;DHT22;10148;47.694;9.442;2022-12-07T14:21:22;4.20;99.90
19974;DHT22;10148;47.694;9.442;2022-12-07T14:24:11;4.20;99.90
19974;DHT22;10148;47.694;9.442;2022-12-07T14:26:39;4.20;99.90
19974;DHT22;10148;47.694;9.442;2022-12-07T14:31:53;4.20;99.90
19974;DHT22;10148;47.694;9.442;2022-12-07T14:34:22;4.20;99.90
19974;DHT22;10148;47.694;9.442;2022-12-07T14:36:48;4.20;99.90
19974;DHT22;10148;47.694;9.442;2022-12-07T14:39:14;4.20;99.90
19974;DHT22;10148;47.694;9.442;2022-12-07T14:41:39;4.20;99.90
19974;DHT22;10148;47.694;9.442;2022-12-07T14:44:22;4.20;99.90
19974;DHT22;10148;47.694;9.442;2022-12-07T14:46:49;4.10;99.90
19974;DHT22;10148;47.694;9.442;2022-12-07T14:49:15;4.00;99.90
19974;DHT22;10148;47.694;9.442;2022-12-07T14:51:42;4.00;99.90
19974;DHT22;10148;47.694;9.442;2022-12-07T14:54:16;4.00;99.90
19974;DHT22;10148;47.694;9.442;2022-12-07T14:56:43;3.90;99.90
19974;DHT22;10148;47.694;9.442;2022-12-07T14:59:10;3.90;99.90
19974;DHT22;10148;47.694;9.442;2022-12-07T15:01:35;3.90;99.90
19974;DHT22;10148;47.694;9.442;2022-12-07T15:04:01;3.90;99.90
19974;DHT22;10148;47.694;9.442;2022-12-07T15:06:26;3.80;99.90
19974;DHT22;10148;47.694;9.442;2022-12-07T15:08:52;3.80;99.90
19974;DHT22;10148;47.694;9.442;2022-12-07T15:11:18;3.80;99.90
19974;DHT22;10148;47.694;9.442;2022-12-07T15:13:44;3.70;99.90
19974;DHT22;10148;47.694;9.442;2022-12-07T15:16:28;3.80;99.90
19974;DHT22;10148;47.694;9.442;2022-12-07T15:18:53;3.70;99.90
19974;DHT22;10148;47.694;9.442;2022-12-07T15:21:19;3.60;99.90
19974;DHT22;10148;47.694;9.442;2022-12-07T15:23:46;3.60;99.90
19974;DHT22;10148;47.694;9.442;2022-12-07T15:26:12;3.60;99.90
19974;DHT22;10148;47.694;9.442;2022-12-07T15:28:39;3.50;99.90
19974;DHT22;10148;47.694;9.442;2022-12-07T15:31:11;3.50;99.90
19974;DHT22;10148;47.694;9.442;2022-12-07T15:33:37;3.50;99.90
19974;DHT22;10148;47.694;9.442;2022-12-07T15:36:02;3.50;99.90
19974;DHT22;10148;47.694;9.442;2022-12-07T15:38:28;3.50;99.90
19974;DHT22;10148;47.694;9.442;2022-12-07T15:40:56;3.50;99.90
19974;DHT22;10148;47.694;9.442;2022-12-07T15:43:21;3.50;99.90
19974;DHT22;10148;47.694;9.442;2022-12-07T15:46:05;3.50;99.90
19974;DHT22;10148;47.694;9.442;2022-12-07T15:48:31;3.50;99.90
19974;DHT22;10148;47.694;9.442;2022-12-07T15:51:07;3.50;99.90
19974;DHT22;10148;47.694;9.442;2022-12-07T15:53:34;3.50;99.90
19974;DHT22;10148;47.694;9.442;2022-12-07T15:56:00;3.40;99.90
19974;DHT22;10148;47.694;9.442;2022-12-07T15:58:26;3.40;99.90
19974;DHT22;10148;47.694;9.442;2022-12-07T16:00:53;3.40;99.90
19974;DHT22;10148;47.694;9.442;2022-12-07T16:03:18;3.40;99.90
19974;DHT22;10148;47.694;9.442;2022-12-07T16:05:51;3.40;99.90
19974;DHT22;10148;47.694;9.442;2022-12-07T16:08:17;3.40;99.90
19974;DHT22;10148;47.694;9.442;2022-12-07T16:10:43;3.40;99.90
19974;DHT22;10148;47.694;9.442;2022-12-07T16:13:12;3.30;99.90
19974;DHT22;10148;47.694;9.442;2022-12-07T16:15:42;3.30;99.90
19974;DHT22;10148;47.694;9.442;2022-12-07T16:18:08;3.30;99.90
19974;DHT22;10148;47.694;9.442;2022-12-07T16:20:33;3.30;99.90
19974;DHT22;10148;47.694;9.442;2022-12-07T16:22:59;3.20;99.90
19974;DHT22;10148;47.694;9.442;2022-12-07T16:25:25;3.30;99.90
19974;DHT22;10148;47.694;9.442;2022-12-07T16:27:52;3.30;99.90
19974;DHT22;10148;47.694;9.442;2022-12-07T16:30:18;3.30;99.90
19974;DHT22;10148;47.694;9.442;2022-12-07T16:32:43;3.30;99.90
19974;DHT22;10148;47.694;9.442;2022-12-07T16:35:10;3.30;99.90
19974;DHT22;10148;47.694;9.442;2022-12-07T16:37:35;3.30;99.90
19974;DHT22;10148;47.694;9.442;2022-12-07T16:40:01;3.30;99.90
19974;DHT22;10148;47.694;9.442;2022-12-07T16:42:31;3.20;99.90
19974;DHT22;10148;47.694;9.442;2022-12-07T16:44:57;3.30;99.90
19974;DHT22;10148;47.694;9.442;2022-12-07T16:47:23;3.30;99.90
19974;DHT22;10148;47.694;9.442;2022-12-07T16:49:48;3.30;99.90
19974;DHT22;10148;47.694;9.442;2022-12-07T16:52:14;3.30;99.90
19974;DHT22;10148;47.694;9.442;2022-12-07T16:54:39;3.30;99.90
19974;DHT22;10148;47.694;9.442;2022-12-07T16:57:05;3.30;99.90
19974;DHT22;10148;47.694;9.442;2022-12-07T16:59:30;3.30;99.90
19974;DHT22;10148;47.694;9.442;2022-12-07T17:01:56;3.30;99.90
19974;DHT22;10148;47.694;9.442;2022-12-07T17:04:22;3.30;99.90
19974;DHT22;10148;47.694;9.442;2022-12-07T17:06:47;3.40;99.90
19974;DHT22;10148;47.694;9.442;2022-12-07T17:09:13;3.40;99.90
19974;DHT22;10148;47.694;9.442;2022-12-07T17:11:39;3.40;99.90
19974;DHT22;10148;47.694;9.442;2022-12-07T17:14:08;3.40;99.90
19974;DHT22;10148;47.694;9.442;2022-12-07T17:16:52;3.40;99.90
19974;DHT22;10148;47.694;9.442;2022-12-07T17:19:18;3.40;99.90
19974;DHT22;10148;47.694;9.442;2022-12-07T17:21:44;3.30;99.90
19974;DHT22;10148;47.694;9.442;2022-12-07T17:24:12;3.30;99.90
19974;DHT22;10148;47.694;9.442;2022-12-07T17:26:39;3.30;99.90
19974;DHT22;10148;47.694;9.442;2022-12-07T17:29:06;3.20;99.90
19974;DHT22;10148;47.694;9.442;2022-12-07T17:31:33;3.20;99.90
19974;DHT22;10148;47.694;9.442;2022-12-07T17:33:59;3.10;99.90
19974;DHT22;10148;47.694;9.442;2022-12-07T17:36:27;3.10;99.90
19974;DHT22;10148;47.694;9.442;2022-12-07T17:38:53;3.10;99.90
19974;DHT22;10148;47.694;9.442;2022-12-07T17:41:28;3.10;99.90
19974;DHT22;10148;47.694;9.442;2022-12-07T17:44:18;3.10;99.90
19974;DHT22;10148;47.694;9.442;2022-12-07T17:46:47;3.00;99.90
19974;DHT22;10148;47.694;9.442;2022-12-07T17:49:13;3.10;99.90
19974;DHT22;10148;47.694;9.442;2022-12-07T17:51:38;3.10;99.90
19974;DHT22;10148;47.694;9.442;2022-12-07T17:54:23;3.20;99.90
19974;DHT22;10148;47.694;9.442;2022-12-07T17:56:48;3.20;99.90
19974;DHT22;10148;47.694;9.442;2022-12-07T17:59:14;3.20;99.90
19974;DHT22;10148;47.694;9.442;2022-12-07T18:01:40;3.20;99.90
19974;DHT22;10148;47.694;9.442;2022-12-07T18:04:06;3.30;99.90
19974;DHT22;10148;47.694;9.442;2022-12-07T18:06:32;3.40;99.90
19974;DHT22;10148;47.694;9.442;2022-12-07T18:08:58;3.30;99.90
19974;DHT22;10148;47.694;9.442;2022-12-07T18:11:23;3.30;99.90
19974;DHT22;10148;47.694;9.442;2022-12-07T18:13:49;3.30;99.90
19974;DHT22;10148;47.694;9.442;2022-12-07T18:16:21;3.40;99.90
19974;DHT22;10148;47.694;9.442;2022-12-07T18:18:47;3.30;99.90
19974;DHT22;10148;47.694;9.442;2022-12-07T18:21:16;3.30;99.90
19974;DHT22;10148;47.694;9.442;2022-12-07T18:23:47;3.20;99.90
19974;DHT22;10148;47.694;9.442;2022-12-07T18:26:13;3.20;99.90
19974;DHT22;10148;47.694;9.442;2022-12-07T18:28:39;3.10;99.90